sensor_id;sensor_type;location;lat;lon;timestamp;P1;durP1;ratioP1;P2;durP2;ratioP2
72404;SDS011;60395;52.020;113.548;2022-12-07T00:01:04;14.07;;;4.65;;
72404;SDS011;60395;52.020;113.548;2022-12-07T00:04:13;16.23;;;4.55;;
72404;SDS011;60395;52.020;113.548;2022-12-07T00:07:17;9.75;;;3.25;;
72404;SDS011;60395;52.020;113.548;2022-12-07T00:10:28;11.10;;;3.70;;
72404;SDS011;60395;52.020;113.548;2022-12-07T00:13:31;13.35;;;4.53;;
72404;SDS011;60395;52.020;113.548;2022-12-07T00:16:35;18.30;;;5.15;;
72404;SDS011;60395;52.020;113.548;2022-12-07T00:19:38;12.52;;;4.85;;
72404;SDS011;60395;52.020;113.548;2022-12-07T00:22:42;9.18;;;2.25;;
72404;SDS011;60395;52.020;113.548;2022-12-07T00:25:45;7.45;;;2.72;;
72404;SDS011;60395;52.020;113.548;2022-12-07T00:28:51;8.25;;;3.33;;
72404;SDS011;60395;52.020;113.548;2022-12-07T00:31:56;7.78;;;2.45;;
72404;SDS011;60395;52.020;113.548;2022-12-07T00:34:59;7.78;;;2.83;;
72404;SDS011;60395;52.020;113.548;2022-12-07T00:38:02;8.10;;;2.75;;
72404;SDS011;60395;52.020;113.548;2022-12-07T00:41:07;21.55;;;5.60;;
72404;SDS011;60395;52.020;113.548;2022-12-07T00:44:13;15.13;;;4.10;;
72404;SDS011;60395;52.020;113.548;2022-12-07T00:47:16;22.85;;;7.45;;
72404;SDS011;60395;52.020;113.548;2022-12-07T00:50:19;24.95;;;8.43;;
72404;SDS011;60395;52.020;113.548;2022-12-07T00:53:22;23.30;;;7.13;;
72404;SDS011;60395;52.020;113.548;2022-12-07T00:56:26;32.15;;;9.27;;
72404;SDS011;60395;52.020;113.548;2022-12-07T00:59:30;22.63;;;7.45;;
72404;SDS011;60395;52.020;113.548;2022-12-07T01:02:34;27.02;;;7.30;;
72404;SDS011;60395;52.020;113.548;2022-12-07T01:05:37;19.42;;;7.70;;
72404;SDS011;60395;52.020;113.548;2022-12-07T01:08:40;15.65;;;6.05;;
72404;SDS011;60395;52.020;113.548;2022-12-07T01:11:43;15.27;;;5.15;;
72404;SDS011;60395;52.020;113.548;2022-12-07T01:14:46;11.90;;;5.05;;
72404;SDS011;60395;52.020;113.548;2022-12-07T01:17:49;20.05;;;7.00;;
72404;SDS011;60395;52.020;113.548;2022-12-07T01:24:09;18.17;;;6.20;;
72404;SDS011;60395;52.020;113.548;2022-12-07T01:27:13;15.88;;;4.30;;
72404;SDS011;60395;52.020;113.548;2022-12-07T01:30:16;17.05;;;5.13;;
72404;SDS011;60395;52.020;113.548;2022-12-07T01:33:19;19.70;;;5.90;;
72404;SDS011;60395;52.020;113.548;2022-12-07T01:36:26;20.85;;;4.97;;
72404;SDS011;60395;52.020;113.548;2022-12-07T01:39:31;25.98;;;5.82;;
72404;SDS011;60395;52.020;113.548;2022-12-07T01:42:34;17.02;;;5.78;;
72404;SDS011;60395;52.020;113.548;2022-12-07T01:45:39;18.02;;;5.25;;
72404;SDS011;60395;52.020;113.548;2022-12-07T01:48:43;20.95;;;6.60;;
72404;SDS011;60395;52.020;113.548;2022-12-07T01:51:46;17.70;;;4.80;;
72404;SDS011;60395;52.020;113.548;2022-12-07T01:54:53;5.18;;;2.40;;
72404;SDS011;60395;52.020;113.548;2022-12-07T01:58:00;4.30;;;2.00;;
72404;SDS011;60395;52.020;113.548;2022-12-07T02:01:03;3.30;;;1.42;;
72404;SDS011;60395;52.020;113.548;2022-12-07T02:04:07;3.60;;;1.50;;
72404;SDS011;60395;52.020;113.548;2022-12-07T02:07:11;32.50;;;1.83;;
72404;SDS011;60395;52.020;113.548;2022-12-07T02:10:19;4.28;;;1.88;;
72404;SDS011;60395;52.020;113.548;2022-12-07T02:13:31;5.15;;;2.05;;
72404;SDS011;60395;52.020;113.548;2022-12-07T02:30:35;5.30;;;2.05;;
72404;SDS011;60395;52.020;113.548;2022-12-07T02:33:45;3.60;;;1.55;;
72404;SDS011;60395;52.020;113.548;2022-12-07T02:36:57;4.07;;;1.73;;
72404;SDS011;60395;52.020;113.548;2022-12-07T02:40:09;7.13;;;1.75;;
72404;SDS011;60395;52.020;113.548;2022-12-07T02:43:20;8.30;;;1.92;;
72404;SDS011;60395;52.020;113.548;2022-12-07T02:46:36;8.10;;;2.08;;
72404;SDS011;60395;52.020;113.548;2022-12-07T02:49:43;8.35;;;2.22;;
72404;SDS011;60395;52.020;113.548;2022-12-07T02:52:46;8.13;;;3.05;;
72404;SDS011;60395;52.020;113.548;2022-12-07T02:55:50;6.78;;;2.28;;
72404;SDS011;60395;52.020;113.548;2022-12-07T03:13:02;16.83;;;5.88;;
72404;SDS011;60395;52.020;113.548;2022-12-07T03:19:48;14.55;;;3.80;;
72404;SDS011;60395;52.020;113.548;2022-12-07T03:22:55;6.30;;;2.10;;
72404;SDS011;60395;52.020;113.548;2022-12-07T03:29:07;10.73;;;2.53;;
72404;SDS011;60395;52.020;113.548;2022-12-07T03:32:23;8.57;;;2.53;;
72404;SDS011;60395;52.020;113.548;2022-12-07T03:35:36;6.50;;;2.75;;
72404;SDS011;60395;52.020;113.548;2022-12-07T03:38:50;4.75;;;2.05;;
72404;SDS011;60395;52.020;113.548;2022-12-07T03:42:00;5.50;;;2.53;;
72404;SDS011;60395;52.020;113.548;2022-12-07T03:45:06;5.40;;;2.20;;
72404;SDS011;60395;52.020;113.548;2022-12-07T03:51:32;9.15;;;3.20;;
72404;SDS011;60395;52.020;113.548;2022-12-07T03:58:23;10.07;;;2.40;;
72404;SDS011;60395;52.020;113.548;2022-12-07T04:04:31;7.63;;;3.72;;
72404;SDS011;60395;52.020;113.548;2022-12-07T04:07:34;6.93;;;2.78;;
72404;SDS011;60395;52.020;113.548;2022-12-07T04:10:38;2.15;;;1.30;;
72404;SDS011;60395;52.020;113.548;2022-12-07T04:13:41;6.60;;;2.60;;
72404;SDS011;60395;52.020;113.548;2022-12-07T04:17:03;9.32;;;2.40;;
72404;SDS011;60395;52.020;113.548;2022-12-07T04:20:07;6.32;;;2.22;;
72404;SDS011;60395;52.020;113.548;2022-12-07T04:23:10;3.08;;;1.42;;
72404;SDS011;60395;52.020;113.548;2022-12-07T04:26:14;3.28;;;1.70;;
72404;SDS011;60395;52.020;113.548;2022-12-07T04:29:17;2.53;;;1.02;;
72404;SDS011;60395;52.020;113.548;2022-12-07T04:32:21;4.60;;;1.88;;
72404;SDS011;60395;52.020;113.548;2022-12-07T04:35:25;5.07;;;2.10;;
72404;SDS011;60395;52.020;113.548;2022-12-07T04:38:28;6.63;;;1.85;;
72404;SDS011;60395;52.020;113.548;2022-12-07T04:41:31;7.47;;;2.10;;
72404;SDS011;60395;52.020;113.548;2022-12-07T04:44:34;7.63;;;2.40;;
72404;SDS011;60395;52.020;113.548;2022-12-07T04:47:37;4.38;;;1.63;;
72404;SDS011;60395;52.020;113.548;2022-12-07T04:50:40;5.03;;;2.08;;
72404;SDS011;60395;52.020;113.548;2022-12-07T04:53:47;7.32;;;2.17;;
72404;SDS011;60395;52.020;113.548;2022-12-07T04:56:50;8.80;;;3.08;;
72404;SDS011;60395;52.020;113.548;2022-12-07T04:59:54;10.63;;;3.47;;
72404;SDS011;60395;52.020;113.548;2022-12-07T05:02:57;11.25;;;3.40;;
72404;SDS011;60395;52.020;113.548;2022-12-07T05:06:00;9.93;;;2.55;;
72404;SDS011;60395;52.020;113.548;2022-12-07T05:09:03;8.30;;;2.80;;
72404;SDS011;60395;52.020;113.548;2022-12-07T05:12:06;10.68;;;3.50;;
72404;SDS011;60395;52.020;113.548;2022-12-07T05:15:10;10.48;;;2.80;;
72404;SDS011;60395;52.020;113.548;2022-12-07T05:18:13;7.28;;;3.10;;
72404;SDS011;60395;52.020;113.548;2022-12-07T05:21:18;8.27;;;2.25;;
72404;SDS011;60395;52.020;113.548;2022-12-07T05:24:22;10.27;;;2.90;;
72404;SDS011;60395;52.020;113.548;2022-12-07T05:27:25;16.33;;;2.90;;
72404;SDS011;60395;52.020;113.548;2022-12-07T05:30:28;7.03;;;2.45;;
72404;SDS011;60395;52.020;113.548;2022-12-07T05:33:32;5.38;;;2.40;;
72404;SDS011;60395;52.020;113.548;2022-12-07T05:36:35;7.93;;;3.05;;
72404;SDS011;60395;52.020;113.548;2022-12-07T05:39:38;9.10;;;2.72;;
72404;SDS011;60395;52.020;113.548;2022-12-07T05:42:43;7.50;;;2.75;;
72404;SDS011;60395;52.020;113.548;2022-12-07T05:45:46;7.22;;;2.75;;
72404;SDS011;60395;52.020;113.548;2022-12-07T05:48:49;7.57;;;2.95;;
72404;SDS011;60395;52.020;113.548;2022-12-07T05:51:52;8.88;;;2.90;;
72404;SDS011;60395;52.020;113.548;2022-12-07T05:54:55;13.95;;;3.60;;
72404;SDS011;60395;52.020;113.548;2022-12-07T05:57:58;14.02;;;4.85;;
72404;SDS011;60395;52.020;113.548;2022-12-07T06:01:20;16.20;;;3.97;;
72404;SDS011;60395;52.020;113.548;2022-12-07T06:04:24;8.57;;;3.40;;
72404;SDS011;60395;52.020;113.548;2022-12-07T06:07:28;16.08;;;4.32;;
72404;SDS011;60395;52.020;113.548;2022-12-07T06:10:31;14.00;;;4.30;;
72404;SDS011;60395;52.020;113.548;2022-12-07T06:13:34;9.15;;;3.95;;
72404;SDS011;60395;52.020;113.548;2022-12-07T06:16:44;8.52;;;2.97;;
72404;SDS011;60395;52.020;113.548;2022-12-07T06:19:47;6.80;;;2.58;;
72404;SDS011;60395;52.020;113.548;2022-12-07T06:22:50;7.75;;;3.35;;
72404;SDS011;60395;52.020;113.548;2022-12-07T06:25:54;17.75;;;4.80;;
72404;SDS011;60395;52.020;113.548;2022-12-07T06:28:57;17.35;;;5.50;;
72404;SDS011;60395;52.020;113.548;2022-12-07T06:32:00;18.13;;;5.65;;
72404;SDS011;60395;52.020;113.548;2022-12-07T06:35:03;13.63;;;4.93;;
72404;SDS011;60395;52.020;113.548;2022-12-07T06:38:07;7.38;;;2.95;;
72404;SDS011;60395;52.020;113.548;2022-12-07T06:41:10;8.33;;;2.07;;
72404;SDS011;60395;52.020;113.548;2022-12-07T06:44:14;8.65;;;2.30;;
72404;SDS011;60395;52.020;113.548;2022-12-07T06:47:17;13.27;;;2.30;;
72404;SDS011;60395;52.020;113.548;2022-12-07T06:50:40;3.47;;;1.00;;
72404;SDS011;60395;52.020;113.548;2022-12-07T06:53:43;1.73;;;0.90;;
72404;SDS011;60395;52.020;113.548;2022-12-07T06:56:46;4.97;;;1.27;;
72404;SDS011;60395;52.020;113.548;2022-12-07T06:59:49;6.88;;;1.65;;
72404;SDS011;60395;52.020;113.548;2022-12-07T07:02:53;4.78;;;1.58;;
72404;SDS011;60395;52.020;113.548;2022-12-07T07:05:56;7.10;;;2.70;;
72404;SDS011;60395;52.020;113.548;2022-12-07T07:08:59;5.68;;;1.85;;
72404;SDS011;60395;52.020;113.548;2022-12-07T07:12:03;11.98;;;2.80;;
72404;SDS011;60395;52.020;113.548;2022-12-07T07:15:06;3.88;;;1.70;;
72404;SDS011;60395;52.020;113.548;2022-12-07T07:18:09;5.50;;;2.40;;
72404;SDS011;60395;52.020;113.548;2022-12-07T07:21:13;6.55;;;2.20;;
72404;SDS011;60395;52.020;113.548;2022-12-07T07:24:16;7.13;;;2.90;;
72404;SDS011;60395;52.020;113.548;2022-12-07T07:27:19;8.43;;;2.90;;
72404;SDS011;60395;52.020;113.548;2022-12-07T07:30:23;15.15;;;3.75;;
72404;SDS011;60395;52.020;113.548;2022-12-07T07:33:26;11.38;;;3.20;;
72404;SDS011;60395;52.020;113.548;2022-12-07T07:36:29;18.67;;;4.63;;
72404;SDS011;60395;52.020;113.548;2022-12-07T07:39:33;27.60;;;6.18;;
72404;SDS011;60395;52.020;113.548;2022-12-07T07:42:36;35.10;;;9.43;;
72404;SDS011;60395;52.020;113.548;2022-12-07T07:45:39;13.82;;;5.30;;
72404;SDS011;60395;52.020;113.548;2022-12-07T07:48:42;13.70;;;4.57;;
72404;SDS011;60395;52.020;113.548;2022-12-07T07:51:46;16.85;;;5.82;;
72404;SDS011;60395;52.020;113.548;2022-12-07T07:54:49;13.95;;;4.93;;
72404;SDS011;60395;52.020;113.548;2022-12-07T07:57:52;19.88;;;7.15;;
72404;SDS011;60395;52.020;113.548;2022-12-07T08:00:56;13.85;;;5.82;;
72404;SDS011;60395;52.020;113.548;2022-12-07T08:03:59;17.75;;;6.22;;
72404;SDS011;60395;52.020;113.548;2022-12-07T08:07:03;18.60;;;7.45;;
72404;SDS011;60395;52.020;113.548;2022-12-07T08:10:06;21.98;;;7.80;;
72404;SDS011;60395;52.020;113.548;2022-12-07T08:13:12;28.77;;;7.43;;
72404;SDS011;60395;52.020;113.548;2022-12-07T08:16:17;12.13;;;4.05;;
72404;SDS011;60395;52.020;113.548;2022-12-07T08:19:20;20.13;;;5.35;;
72404;SDS011;60395;52.020;113.548;2022-12-07T08:22:24;13.70;;;4.72;;
72404;SDS011;60395;52.020;113.548;2022-12-07T08:25:27;12.70;;;4.43;;
72404;SDS011;60395;52.020;113.548;2022-12-07T08:28:30;13.50;;;4.47;;
72404;SDS011;60395;52.020;113.548;2022-12-07T08:31:34;22.90;;;6.03;;
72404;SDS011;60395;52.020;113.548;2022-12-07T08:34:38;18.83;;;5.40;;
72404;SDS011;60395;52.020;113.548;2022-12-07T08:37:41;15.73;;;5.20;;
72404;SDS011;60395;52.020;113.548;2022-12-07T08:40:44;18.05;;;6.18;;
72404;SDS011;60395;52.020;113.548;2022-12-07T08:43:55;11.93;;;4.45;;
72404;SDS011;60395;52.020;113.548;2022-12-07T08:46:59;13.82;;;4.85;;
72404;SDS011;60395;52.020;113.548;2022-12-07T08:50:07;12.43;;;4.57;;
72404;SDS011;60395;52.020;113.548;2022-12-07T08:53:13;11.68;;;3.67;;
72404;SDS011;60395;52.020;113.548;2022-12-07T08:56:16;7.65;;;2.75;;
72404;SDS011;60395;52.020;113.548;2022-12-07T08:59:20;8.20;;;2.88;;
72404;SDS011;60395;52.020;113.548;2022-12-07T09:02:23;14.23;;;3.80;;
72404;SDS011;60395;52.020;113.548;2022-12-07T09:05:26;9.05;;;3.63;;
72404;SDS011;60395;52.020;113.548;2022-12-07T09:08:34;10.85;;;3.85;;
72404;SDS011;60395;52.020;113.548;2022-12-07T09:11:41;10.55;;;4.15;;
72404;SDS011;60395;52.020;113.548;2022-12-07T09:14:47;9.30;;;3.60;;
72404;SDS011;60395;52.020;113.548;2022-12-07T09:17:50;9.65;;;3.28;;
72404;SDS011;60395;52.020;113.548;2022-12-07T09:20:54;8.55;;;3.08;;
72404;SDS011;60395;52.020;113.548;2022-12-07T09:23:58;7.82;;;2.72;;
72404;SDS011;60395;52.020;113.548;2022-12-07T09:27:02;7.25;;;2.55;;
72404;SDS011;60395;52.020;113.548;2022-12-07T09:30:05;7.68;;;3.05;;
72404;SDS011;60395;52.020;113.548;2022-12-07T09:33:09;11.15;;;2.70;;
72404;SDS011;60395;52.020;113.548;2022-12-07T09:36:12;8.35;;;2.95;;
72404;SDS011;60395;52.020;113.548;2022-12-07T09:39:15;10.07;;;3.80;;
72404;SDS011;60395;52.020;113.548;2022-12-07T09:42:37;9.88;;;2.03;;
72404;SDS011;60395;52.020;113.548;2022-12-07T09:45:55;7.90;;;2.97;;
72404;SDS011;60395;52.020;113.548;2022-12-07T09:49:00;11.40;;;4.20;;
72404;SDS011;60395;52.020;113.548;2022-12-07T09:55:10;9.48;;;4.03;;
72404;SDS011;60395;52.020;113.548;2022-12-07T09:58:22;10.98;;;3.70;;
72404;SDS011;60395;52.020;113.548;2022-12-07T10:01:29;17.27;;;5.85;;
72404;SDS011;60395;52.020;113.548;2022-12-07T10:04:34;25.73;;;7.53;;
72404;SDS011;60395;52.020;113.548;2022-12-07T10:07:40;32.90;;;12.32;;
72404;SDS011;60395;52.020;113.548;2022-12-07T10:10:44;24.35;;;9.90;;
72404;SDS011;60395;52.020;113.548;2022-12-07T10:13:51;15.65;;;5.55;;
72404;SDS011;60395;52.020;113.548;2022-12-07T10:16:58;22.50;;;5.95;;
72404;SDS011;60395;52.020;113.548;2022-12-07T10:20:08;11.23;;;5.30;;
72404;SDS011;60395;52.020;113.548;2022-12-07T10:23:15;13.20;;;3.95;;
72404;SDS011;60395;52.020;113.548;2022-12-07T10:32:38;5.72;;;1.88;;
72404;SDS011;60395;52.020;113.548;2022-12-07T10:35:44;23.50;;;8.48;;
72404;SDS011;60395;52.020;113.548;2022-12-07T10:38:52;5.60;;;2.22;;
72404;SDS011;60395;52.020;113.548;2022-12-07T10:42:03;8.60;;;2.87;;
72404;SDS011;60395;52.020;113.548;2022-12-07T10:45:07;5.10;;;2.53;;
72404;SDS011;60395;52.020;113.548;2022-12-07T10:51:52;11.57;;;3.58;;
72404;SDS011;60395;52.020;113.548;2022-12-07T11:02:09;5.97;;;2.70;;
72404;SDS011;60395;52.020;113.548;2022-12-07T11:08:52;7.18;;;2.78;;
72404;SDS011;60395;52.020;113.548;2022-12-07T11:12:05;6.63;;;2.42;;
72404;SDS011;60395;52.020;113.548;2022-12-07T11:15:22;5.90;;;2.67;;
72404;SDS011;60395;52.020;113.548;2022-12-07T11:22:06;3.70;;;1.52;;
72404;SDS011;60395;52.020;113.548;2022-12-07T11:39:50;7.85;;;2.60;;
72404;SDS011;60395;52.020;113.548;2022-12-07T11:46:36;10.40;;;3.70;;
72404;SDS011;60395;52.020;113.548;2022-12-07T11:53:23;7.50;;;2.72;;
72404;SDS011;60395;52.020;113.548;2022-12-07T11:56:31;7.28;;;2.58;;
72404;SDS011;60395;52.020;113.548;2022-12-07T11:59:43;9.57;;;3.88;;
72404;SDS011;60395;52.020;113.548;2022-12-07T12:03:01;10.52;;;3.72;;
72404;SDS011;60395;52.020;113.548;2022-12-07T12:06:08;27.90;;;10.88;;
72404;SDS011;60395;52.020;113.548;2022-12-07T12:16:31;18.40;;;3.95;;
72404;SDS011;60395;52.020;113.548;2022-12-07T12:23:15;5.50;;;2.13;;
72404;SDS011;60395;52.020;113.548;2022-12-07T12:26:29;5.15;;;1.90;;
72404;SDS011;60395;52.020;113.548;2022-12-07T12:29:37;8.30;;;2.50;;
72404;SDS011;60395;52.020;113.548;2022-12-07T12:32:43;7.43;;;2.35;;
72404;SDS011;60395;52.020;113.548;2022-12-07T12:35:48;7.70;;;1.73;;
72404;SDS011;60395;52.020;113.548;2022-12-07T12:39:19;1.95;;;0.77;;
72404;SDS011;60395;52.020;113.548;2022-12-07T12:42:43;5.00;;;1.60;;
72404;SDS011;60395;52.020;113.548;2022-12-07T12:45:47;11.50;;;2.80;;
72404;SDS011;60395;52.020;113.548;2022-12-07T12:48:52;4.05;;;2.15;;
72404;SDS011;60395;52.020;113.548;2022-12-07T12:58:31;13.77;;;1.77;;
72404;SDS011;60395;52.020;113.548;2022-12-07T13:11:17;5.22;;;1.90;;
72404;SDS011;60395;52.020;113.548;2022-12-07T13:24:10;4.00;;;1.50;;
72404;SDS011;60395;52.020;113.548;2022-12-07T13:27:16;7.57;;;1.92;;
72404;SDS011;60395;52.020;113.548;2022-12-07T13:30:20;8.20;;;3.05;;
72404;SDS011;60395;52.020;113.548;2022-12-07T13:33:26;6.97;;;2.00;;
72404;SDS011;60395;52.020;113.548;2022-12-07T13:36:33;6.53;;;2.58;;
72404;SDS011;60395;52.020;113.548;2022-12-07T13:39:46;5.60;;;2.20;;
72404;SDS011;60395;52.020;113.548;2022-12-07T13:42:58;7.80;;;2.08;;
72404;SDS011;60395;52.020;113.548;2022-12-07T13:46:06;15.68;;;5.45;;
72404;SDS011;60395;52.020;113.548;2022-12-07T13:49:22;4.68;;;1.80;;
72404;SDS011;60395;52.020;113.548;2022-12-07T13:52:30;3.45;;;1.52;;
72404;SDS011;60395;52.020;113.548;2022-12-07T13:55:33;3.72;;;1.73;;
72404;SDS011;60395;52.020;113.548;2022-12-07T13:58:37;2.83;;;1.25;;
72404;SDS011;60395;52.020;113.548;2022-12-07T14:01:40;25.52;;;9.45;;
72404;SDS011;60395;52.020;113.548;2022-12-07T14:04:45;13.90;;;2.05;;
72404;SDS011;60395;52.020;113.548;2022-12-07T14:08:01;3.55;;;1.80;;
72404;SDS011;60395;52.020;113.548;2022-12-07T14:11:06;3.20;;;1.63;;
72404;SDS011;60395;52.020;113.548;2022-12-07T14:14:36;2.80;;;1.08;;
72404;SDS011;60395;52.020;113.548;2022-12-07T14:17:49;2.38;;;0.98;;
72404;SDS011;60395;52.020;113.548;2022-12-07T14:21:13;2.15;;;0.85;;
72404;SDS011;60395;52.020;113.548;2022-12-07T14:24:21;3.90;;;1.38;;
72404;SDS011;60395;52.020;113.548;2022-12-07T14:27:24;2.95;;;1.50;;
72404;SDS011;60395;52.020;113.548;2022-12-07T14:30:36;2.72;;;0.80;;
72404;SDS011;60395;52.020;113.548;2022-12-07T14:33:39;3.95;;;1.45;;
72404;SDS011;60395;52.020;113.548;2022-12-07T14:36:43;5.47;;;1.80;;
72404;SDS011;60395;52.020;113.548;2022-12-07T14:39:46;5.45;;;1.63;;
72404;SDS011;60395;52.020;113.548;2022-12-07T14:42:51;3.80;;;1.40;;
72404;SDS011;60395;52.020;113.548;2022-12-07T14:46:05;6.15;;;2.15;;
72404;SDS011;60395;52.020;113.548;2022-12-07T14:49:08;7.18;;;2.00;;
72404;SDS011;60395;52.020;113.548;2022-12-07T14:52:31;5.40;;;2.10;;
72404;SDS011;60395;52.020;113.548;2022-12-07T14:55:55;8.27;;;2.50;;
72404;SDS011;60395;52.020;113.548;2022-12-07T14:58:58;5.90;;;1.67;;
72404;SDS011;60395;52.020;113.548;2022-12-07T15:02:02;3.17;;;1.20;;
72404;SDS011;60395;52.020;113.548;2022-12-07T15:05:05;6.85;;;2.25;;
72404;SDS011;60395;52.020;113.548;2022-12-07T15:08:16;5.93;;;1.98;;
72404;SDS011;60395;52.020;113.548;2022-12-07T15:11:20;4.03;;;1.50;;
72404;SDS011;60395;52.020;113.548;2022-12-07T15:14:23;5.35;;;1.75;;
72404;SDS011;60395;52.020;113.548;2022-12-07T15:17:26;3.90;;;1.33;;
72404;SDS011;60395;52.020;113.548;2022-12-07T15:20:33;3.72;;;1.73;;
72404;SDS011;60395;52.020;113.548;2022-12-07T15:23:36;2.30;;;1.15;;
72404;SDS011;60395;52.020;113.548;2022-12-07T15:26:40;4.15;;;1.58;;
72404;SDS011;60395;52.020;113.548;2022-12-07T15:29:43;2.33;;;0.85;;
72404;SDS011;60395;52.020;113.548;2022-12-07T15:32:53;1.13;;;0.68;;
72404;SDS011;60395;52.020;113.548;2022-12-07T15:35:58;9.38;;;1.38;;
72404;SDS011;60395;52.020;113.548;2022-12-07T15:39:02;4.80;;;1.25;;
72404;SDS011;60395;52.020;113.548;2022-12-07T15:42:15;3.75;;;1.20;;
72404;SDS011;60395;52.020;113.548;2022-12-07T15:45:18;3.75;;;0.95;;
72404;SDS011;60395;52.020;113.548;2022-12-07T15:48:21;5.25;;;1.45;;
72404;SDS011;60395;52.020;113.548;2022-12-07T15:51:30;7.68;;;2.05;;
72404;SDS011;60395;52.020;113.548;2022-12-07T15:54:33;6.40;;;2.20;;
72404;SDS011;60395;52.020;113.548;2022-12-07T15:57:36;5.00;;;0.82;;
72404;SDS011;60395;52.020;113.548;2022-12-07T16:00:41;2.08;;;1.00;;
72404;SDS011;60395;52.020;113.548;2022-12-07T16:03:44;0.80;;;0.60;;
72404;SDS011;60395;52.020;113.548;2022-12-07T16:06:48;2.30;;;0.82;;
72404;SDS011;60395;52.020;113.548;2022-12-07T16:09:53;4.13;;;1.38;;
72404;SDS011;60395;52.020;113.548;2022-12-07T16:12:56;4.07;;;1.30;;
72404;SDS011;60395;52.020;113.548;2022-12-07T16:16:03;4.07;;;1.35;;
72404;SDS011;60395;52.020;113.548;2022-12-07T16:19:08;5.32;;;1.55;;
72404;SDS011;60395;52.020;113.548;2022-12-07T16:22:13;4.28;;;1.77;;
72404;SDS011;60395;52.020;113.548;2022-12-07T16:25:16;2.95;;;1.17;;
72404;SDS011;60395;52.020;113.548;2022-12-07T16:28:19;5.75;;;1.80;;
72404;SDS011;60395;52.020;113.548;2022-12-07T16:31:23;5.15;;;1.67;;
72404;SDS011;60395;52.020;113.548;2022-12-07T16:34:28;4.00;;;1.42;;
72404;SDS011;60395;52.020;113.548;2022-12-07T16:37:31;5.65;;;1.77;;
72404;SDS011;60395;52.020;113.548;2022-12-07T16:40:34;4.07;;;1.52;;
72404;SDS011;60395;52.020;113.548;2022-12-07T16:43:38;4.13;;;1.58;;
72404;SDS011;60395;52.020;113.548;2022-12-07T16:46:41;5.75;;;1.25;;
72404;SDS011;60395;52.020;113.548;2022-12-07T16:49:45;5.25;;;1.02;;
72404;SDS011;60395;52.020;113.548;2022-12-07T16:52:48;4.63;;;1.13;;
72404;SDS011;60395;52.020;113.548;2022-12-07T16:55:51;2.30;;;1.05;;
72404;SDS011;60395;52.020;113.548;2022-12-07T16:58:54;7.70;;;1.67;;
72404;SDS011;60395;52.020;113.548;2022-12-07T17:01:57;3.85;;;1.65;;
72404;SDS011;60395;52.020;113.548;2022-12-07T17:05:00;7.00;;;1.55;;
72404;SDS011;60395;52.020;113.548;2022-12-07T17:08:04;3.53;;;1.50;;
72404;SDS011;60395;52.020;113.548;2022-12-07T17:11:14;5.18;;;1.25;;
72404;SDS011;60395;52.020;113.548;2022-12-07T17:14:23;2.70;;;1.15;;
72404;SDS011;60395;52.020;113.548;2022-12-07T17:17:45;3.85;;;1.00;;
72404;SDS011;60395;52.020;113.548;2022-12-07T17:20:54;8.18;;;1.05;;
72404;SDS011;60395;52.020;113.548;2022-12-07T17:24:06;2.47;;;0.80;;
72404;SDS011;60395;52.020;113.548;2022-12-07T17:27:10;3.28;;;1.20;;
72404;SDS011;60395;52.020;113.548;2022-12-07T17:30:13;2.85;;;1.52;;
72404;SDS011;60395;52.020;113.548;2022-12-07T17:33:16;2.97;;;0.77;;
72404;SDS011;60395;52.020;113.548;2022-12-07T17:36:23;2.92;;;1.15;;
72404;SDS011;60395;52.020;113.548;2022-12-07T17:39:28;1.50;;;0.75;;
72404;SDS011;60395;52.020;113.548;2022-12-07T17:42:31;5.03;;;0.63;;
72404;SDS011;60395;52.020;113.548;2022-12-07T17:45:41;6.10;;;0.95;;
72404;SDS011;60395;52.020;113.548;2022-12-07T17:48:45;1.52;;;0.68;;
72404;SDS011;60395;52.020;113.548;2022-12-07T17:51:48;1.33;;;0.47;;
72404;SDS011;60395;52.020;113.548;2022-12-07T17:55:10;2.03;;;0.98;;
72404;SDS011;60395;52.020;113.548;2022-12-07T17:58:13;5.85;;;1.00;;
72404;SDS011;60395;52.020;113.548;2022-12-07T18:01:16;3.03;;;1.05;;
72404;SDS011;60395;52.020;113.548;2022-12-07T18:04:24;3.47;;;0.82;;
72404;SDS011;60395;52.020;113.548;2022-12-07T18:07:27;2.58;;;0.85;;
72404;SDS011;60395;52.020;113.548;2022-12-07T18:10:30;3.15;;;0.80;;
72404;SDS011;60395;52.020;113.548;2022-12-07T18:13:34;4.20;;;1.00;;
72404;SDS011;60395;52.020;113.548;2022-12-07T18:16:37;1.17;;;0.70;;
72404;SDS011;60395;52.020;113.548;2022-12-07T18:19:40;2.47;;;0.85;;
72404;SDS011;60395;52.020;113.548;2022-12-07T18:22:43;1.73;;;0.70;;
72404;SDS011;60395;52.020;113.548;2022-12-07T18:25:49;2.53;;;0.93;;
72404;SDS011;60395;52.020;113.548;2022-12-07T18:28:53;0.93;;;0.50;;
72404;SDS011;60395;52.020;113.548;2022-12-07T18:31:56;0.88;;;0.43;;
72404;SDS011;60395;52.020;113.548;2022-12-07T18:35:00;1.27;;;0.70;;
72404;SDS011;60395;52.020;113.548;2022-12-07T18:38:03;2.30;;;1.00;;
72404;SDS011;60395;52.020;113.548;2022-12-07T18:41:07;4.82;;;1.30;;
72404;SDS011;60395;52.020;113.548;2022-12-07T18:44:13;2.63;;;0.90;;
72404;SDS011;60395;52.020;113.548;2022-12-07T18:47:18;1.13;;;0.50;;
72404;SDS011;60395;52.020;113.548;2022-12-07T18:50:21;1.25;;;0.68;;
72404;SDS011;60395;52.020;113.548;2022-12-07T18:53:24;4.38;;;1.38;;
72404;SDS011;60395;52.020;113.548;2022-12-07T18:56:27;1.23;;;0.50;;
72404;SDS011;60395;52.020;113.548;2022-12-07T18:59:30;2.80;;;1.02;;
72404;SDS011;60395;52.020;113.548;2022-12-07T19:02:49;1.13;;;0.60;;
72404;SDS011;60395;52.020;113.548;2022-12-07T19:05:53;1.63;;;0.30;;
72404;SDS011;60395;52.020;113.548;2022-12-07T19:08:59;1.90;;;0.70;;
72404;SDS011;60395;52.020;113.548;2022-12-07T19:12:02;5.93;;;1.05;;
72404;SDS011;60395;52.020;113.548;2022-12-07T19:15:07;2.13;;;0.95;;
72404;SDS011;60395;52.020;113.548;2022-12-07T19:21:14;2.53;;;0.60;;
72404;SDS011;60395;52.020;113.548;2022-12-07T19:24:17;2.45;;;0.55;;
72404;SDS011;60395;52.020;113.548;2022-12-07T19:27:24;1.10;;;0.43;;
72404;SDS011;60395;52.020;113.548;2022-12-07T19:30:28;2.13;;;0.75;;
72404;SDS011;60395;52.020;113.548;2022-12-07T19:33:31;1.95;;;0.70;;
72404;SDS011;60395;52.020;113.548;2022-12-07T19:36:34;1.98;;;0.88;;
72404;SDS011;60395;52.020;113.548;2022-12-07T19:39:38;0.32;;;0.30;;
72404;SDS011;60395;52.020;113.548;2022-12-07T19:42:42;1.33;;;0.63;;
72404;SDS011;60395;52.020;113.548;2022-12-07T19:45:45;3.28;;;0.93;;
72404;SDS011;60395;52.020;113.548;2022-12-07T19:48:48;1.15;;;0.57;;
72404;SDS011;60395;52.020;113.548;2022-12-07T19:51:52;1.08;;;0.60;;
72404;SDS011;60395;52.020;113.548;2022-12-07T19:54:57;1.23;;;0.70;;
72404;SDS011;60395;52.020;113.548;2022-12-07T19:58:00;1.92;;;0.60;;
72404;SDS011;60395;52.020;113.548;2022-12-07T20:01:03;3.80;;;0.80;;
72404;SDS011;60395;52.020;113.548;2022-12-07T20:04:09;1.55;;;0.90;;
72404;SDS011;60395;52.020;113.548;2022-12-07T20:07:20;1.20;;;0.63;;
72404;SDS011;60395;52.020;113.548;2022-12-07T20:10:24;1.80;;;0.80;;
72404;SDS011;60395;52.020;113.548;2022-12-07T20:13:27;0.70;;;0.50;;
72404;SDS011;60395;52.020;113.548;2022-12-07T20:16:30;2.20;;;0.80;;
72404;SDS011;60395;52.020;113.548;2022-12-07T20:19:36;1.23;;;0.60;;